createdAt,value
2023-04-12T00:02:23.974Z,5.45
2023-04-12T00:04:55.873Z,5.47
2023-04-12T00:07:27.770Z,5.42
2023-04-12T00:09:55.021Z,5.42
2023-04-12T00:12:22.502Z,5.45
2023-04-12T00:14:49.932Z,5.49
2023-04-12T00:17:17.192Z,5.50
2023-04-12T00:19:45.274Z,5.49
2023-04-12T00:22:12.945Z,5.50
2023-04-12T00:24:41.386Z,5.50
2023-04-12T00:27:09.045Z,5.48
2023-04-12T00:29:36.735Z,5.46
2023-04-12T00:32:06.078Z,5.47
2023-04-12T00:34:33.487Z,5.48
2023-04-12T00:37:02.294Z,5.52
2023-04-12T00:39:29.662Z,5.60
2023-04-12T00:41:58.292Z,5.61
2023-04-12T00:44:25.544Z,5.61
2023-04-12T00:46:55.044Z,5.61
2023-04-12T00:49:22.394Z,5.60
2023-04-12T00:51:49.765Z,5.61
2023-04-12T00:54:18.599Z,5.61
2023-04-12T00:56:47.650Z,5.59
2023-04-12T00:59:15.734Z,5.60
2023-04-12T01:01:43.063Z,5.60
2023-04-12T01:04:14.407Z,5.48
2023-04-12T01:06:41.695Z,5.42
2023-04-12T01:09:16.669Z,5.41
2023-04-12T01:12:02.749Z,5.43
2023-04-12T01:14:51.572Z,5.41
2023-04-12T01:17:27.927Z,5.29
2023-04-12T01:20:14.897Z,5.32
2023-04-12T01:23:15.224Z,5.38
2023-04-12T01:25:48.637Z,5.44
2023-04-12T01:28:23.208Z,5.44
2023-04-12T01:30:54.410Z,5.49
2023-04-12T01:33:24.375Z,5.47
2023-04-12T01:35:54.048Z,5.45
2023-04-12T01:38:22.162Z,5.50
2023-04-12T01:40:49.630Z,5.55
2023-04-12T01:43:19.215Z,5.62
2023-04-12T01:45:46.806Z,5.65
2023-04-12T01:48:14.295Z,5.71
2023-04-12T01:51:24.184Z,5.76
2023-04-12T01:54:19.840Z,5.83
2023-04-12T01:56:51.375Z,5.87
2023-04-12T01:59:20.395Z,5.86
2023-04-12T02:01:49.141Z,5.92
2023-04-12T02:04:18.963Z,6.00
2023-04-12T02:06:47.591Z,6.16
2023-04-12T02:09:14.878Z,6.25
2023-04-12T02:11:47.903Z,6.36
2023-04-12T02:14:15.673Z,6.45
2023-04-12T02:16:46.148Z,6.54
2023-04-12T02:19:13.492Z,6.56
2023-04-12T02:21:43.883Z,6.53
2023-04-12T02:24:12.089Z,6.57
2023-04-12T02:26:45.391Z,6.55
2023-04-12T02:29:14.385Z,6.62
2023-04-12T02:31:41.900Z,6.69
2023-04-12T02:34:13.953Z,6.70
2023-04-12T02:36:48.009Z,6.72
2023-04-12T02:39:19.059Z,6.72
2023-04-12T02:41:48.888Z,6.72
2023-04-12T02:44:16.991Z,6.68
2023-04-12T02:46:52.468Z,6.69
2023-04-12T02:49:20.237Z,6.65
2023-04-12T02:51:48.836Z,6.63
2023-04-12T02:54:17.668Z,6.63
2023-04-12T02:56:55.372Z,6.70
2023-04-12T02:59:55.329Z,6.76
2023-04-12T03:02:26.493Z,6.75
2023-04-12T03:04:59.443Z,6.78
2023-04-12T03:07:36.897Z,6.72
2023-04-12T03:10:07.744Z,6.62
2023-04-12T03:12:40.107Z,6.54
2023-04-12T03:15:33.676Z,6.61
2023-04-12T03:18:01.957Z,6.65
2023-04-12T03:20:33.921Z,6.68
2023-04-12T03:23:07.539Z,6.72
2023-04-12T03:25:38.211Z,6.77
2023-04-12T03:28:25.715Z,6.68
2023-04-12T03:30:54.573Z,6.56
2023-04-12T03:33:25.380Z,6.57
2023-04-12T03:35:57.194Z,6.58
2023-04-12T03:38:25.396Z,6.55
2023-04-12T03:40:54.236Z,6.58
2023-04-12T03:43:27.789Z,6.68
2023-04-12T03:45:56.035Z,6.71
2023-04-12T03:48:26.198Z,6.74
2023-04-12T03:50:55.021Z,6.66
2023-04-12T03:53:24.149Z,6.65
2023-04-12T03:55:51.629Z,6.71
2023-04-12T03:58:20.585Z,6.74
2023-04-12T04:00:49.626Z,6.66
2023-04-12T04:03:17.140Z,6.59
2023-04-12T04:05:50.946Z,6.56
2023-04-12T04:08:21.414Z,6.57
2023-04-12T04:10:53.133Z,6.57
2023-04-12T04:13:25.044Z,6.58
2023-04-12T04:16:04.890Z,6.58
2023-04-12T04:18:33.394Z,6.58
2023-04-12T04:21:01.909Z,6.57
2023-04-12T04:23:39.364Z,6.58
2023-04-12T04:26:11.387Z,6.58
2023-04-12T04:29:05.343Z,6.61
2023-04-12T04:31:38.425Z,6.62
2023-04-12T04:34:10.519Z,6.60
2023-04-12T04:36:43.422Z,6.57
2023-04-12T04:39:11.041Z,6.64
2023-04-12T04:41:41.730Z,6.63
2023-04-12T04:44:32.228Z,6.62
2023-04-12T04:47:01.179Z,6.57
2023-04-12T04:49:28.515Z,6.44
2023-04-12T04:52:03.547Z,6.37
2023-04-12T04:54:33.456Z,6.29
2023-04-12T04:57:02.098Z,6.24
2023-04-12T04:59:30.705Z,6.13
2023-04-12T05:02:11.952Z,5.99
2023-04-12T05:04:39.262Z,5.89
2023-04-12T05:07:07.776Z,5.82
2023-04-12T05:09:35.859Z,5.79
2023-04-12T05:12:03.857Z,5.71
2023-04-12T05:14:44.468Z,5.68
2023-04-12T05:17:14.403Z,5.69
2023-04-12T05:19:44.323Z,5.73
2023-04-12T05:22:13.627Z,5.76
2023-04-12T05:24:41.313Z,5.74
2023-04-12T05:27:09.354Z,5.72
2023-04-12T05:29:36.639Z,5.76
2023-04-12T05:32:06.778Z,5.78
2023-04-12T05:34:38.173Z,5.84
2023-04-12T05:37:05.781Z,5.85
2023-04-12T05:39:37.504Z,5.83
2023-04-12T05:42:07.036Z,5.83
2023-04-12T05:44:37.538Z,5.88
2023-04-12T05:47:06.656Z,5.84
2023-04-12T05:49:34.561Z,5.89
2023-04-12T05:52:06.693Z,5.88
2023-04-12T05:54:34.399Z,5.90
2023-04-12T05:57:01.612Z,5.85
2023-04-12T05:59:29.785Z,5.86
2023-04-12T06:01:57.326Z,5.87
2023-04-12T06:04:34.917Z,5.85
2023-04-12T06:07:18.048Z,5.79
2023-04-12T06:09:45.540Z,5.77
2023-04-12T06:12:12.905Z,5.81
2023-04-12T06:14:40.788Z,5.81
2023-04-12T06:17:09.198Z,5.77
2023-04-12T06:19:36.547Z,5.81
2023-04-12T06:22:03.841Z,5.88
2023-04-12T06:24:32.320Z,5.97
2023-04-12T06:26:59.588Z,6.02
2023-04-12T06:29:26.973Z,6.05
2023-04-12T06:31:54.263Z,6.09
2023-04-12T06:34:22.109Z,6.12
2023-04-12T06:36:50.723Z,6.18
2023-04-12T06:39:17.992Z,6.20
2023-04-12T06:41:47.679Z,6.16
2023-04-12T06:44:19.978Z,6.29
2023-04-12T06:46:47.351Z,6.34
2023-04-12T06:49:14.717Z,6.36
2023-04-12T06:51:42.016Z,6.31
2023-04-12T06:54:09.493Z,6.34
2023-04-12T06:56:40.083Z,6.43
2023-04-12T06:59:07.433Z,6.40
2023-04-12T07:01:34.759Z,6.50
2023-04-12T07:04:02.229Z,6.54
2023-04-12T07:06:29.672Z,6.62
2023-04-12T07:08:57.246Z,6.65
2023-04-12T07:11:24.867Z,6.75
2023-04-12T07:13:52.229Z,6.90
2023-04-12T07:16:19.561Z,6.96
2023-04-12T07:18:46.893Z,7.03
2023-04-12T07:21:18.154Z,7.07
2023-04-12T07:23:47.075Z,7.05
2023-04-12T07:26:14.353Z,7.17
2023-04-12T07:28:41.738Z,7.24
2023-04-12T07:31:09.294Z,7.21
2023-04-12T07:33:41.401Z,7.33
2023-04-12T07:36:10.876Z,7.26
2023-04-12T07:38:38.261Z,7.39
2023-04-12T07:41:05.769Z,7.37
2023-04-12T07:43:33.131Z,7.49
2023-04-12T07:46:04.791Z,7.59
2023-04-12T07:48:32.113Z,7.52
2023-04-12T07:50:59.348Z,7.61
2023-04-12T07:53:28.982Z,7.62
2023-04-12T07:55:56.715Z,7.58
2023-04-12T07:58:25.104Z,7.36
2023-04-12T08:00:52.610Z,7.47
2023-04-12T08:03:20.239Z,7.61
2023-04-12T08:05:53.832Z,7.70
2023-04-12T08:08:22.871Z,7.80
2023-04-12T08:10:51.445Z,7.83
2023-04-12T08:13:19.072Z,7.89
2023-04-12T08:15:48.132Z,7.93
2023-04-12T08:18:16.236Z,7.90
2023-04-12T08:20:47.473Z,8.04
2023-04-12T08:23:14.801Z,7.97
2023-04-12T08:25:42.077Z,8.03
2023-04-12T08:28:09.334Z,8.13
2023-04-12T08:30:37.072Z,7.83
2023-04-12T08:33:04.503Z,7.74
2023-04-12T08:35:32.115Z,7.71
2023-04-12T08:38:00.696Z,7.66
2023-04-12T08:40:28.036Z,7.72
2023-04-12T08:42:57.111Z,7.83
2023-04-12T08:45:29.747Z,8.04
2023-04-12T08:47:57.767Z,8.03
2023-04-12T08:50:26.796Z,7.98
2023-04-12T08:52:54.802Z,7.85
2023-04-12T08:55:22.009Z,8.00
2023-04-12T08:57:50.068Z,7.97
2023-04-12T09:00:20.141Z,8.13
2023-04-12T09:02:49.153Z,8.02
2023-04-12T09:05:16.580Z,8.07
2023-04-12T09:07:44.069Z,8.04
2023-04-12T09:10:11.391Z,8.00
2023-04-12T09:12:47.748Z,7.94
2023-04-12T09:15:18.049Z,7.91
2023-04-12T09:17:45.995Z,7.77
2023-04-12T09:20:13.213Z,7.76
2023-04-12T09:22:45.306Z,7.85
2023-04-12T09:25:13.510Z,7.92
2023-04-12T09:27:51.197Z,8.08
2023-04-12T09:30:20.209Z,8.29
2023-04-12T09:32:49.952Z,8.46
2023-04-12T09:35:17.243Z,8.72
2023-04-12T09:37:44.551Z,8.93
2023-04-12T09:40:12.138Z,9.30
2023-04-12T09:42:54.770Z,9.54
2023-04-12T09:45:26.618Z,9.63
2023-04-12T09:47:55.233Z,9.74
2023-04-12T09:50:32.789Z,9.87
2023-04-12T09:53:03.107Z,9.83
2023-04-12T09:55:34.461Z,9.78
2023-04-12T09:58:04.356Z,10.07
2023-04-12T10:00:34.743Z,10.24
2023-04-12T10:03:03.225Z,10.14
2023-04-12T10:05:31.936Z,10.20
2023-04-12T10:08:02.363Z,10.43
2023-04-12T10:10:31.419Z,10.18
2023-04-12T10:12:59.643Z,10.39
2023-04-12T10:15:27.682Z,10.67
2023-04-12T10:17:58.100Z,11.04
2023-04-12T10:20:28.485Z,11.59
2023-04-12T10:22:59.910Z,11.94
2023-04-12T10:25:32.032Z,12.03
2023-04-12T10:28:14.597Z,12.13
2023-04-12T10:30:42.321Z,12.21
2023-04-12T10:33:14.699Z,12.33
2023-04-12T10:36:08.946Z,12.30
2023-04-12T10:38:47.638Z,12.55
2023-04-12T10:41:21.851Z,12.60
2023-04-12T10:43:50.568Z,13.00
2023-04-12T10:46:40.001Z,13.17
2023-04-12T10:49:17.844Z,13.08
2023-04-12T10:52:02.144Z,13.17
2023-04-12T10:54:30.470Z,13.42
2023-04-12T10:56:57.932Z,13.54
2023-04-12T10:59:51.410Z,12.97
2023-04-12T11:02:18.908Z,12.92
2023-04-12T11:05:11.873Z,13.00
2023-04-12T11:08:12.683Z,12.87
2023-04-12T11:10:42.025Z,13.10
2023-04-12T11:13:16.457Z,12.93
2023-04-12T11:15:44.283Z,13.15
2023-04-12T11:18:14.814Z,13.30
2023-04-12T11:20:42.385Z,13.62
2023-04-12T11:23:11.697Z,13.98
2023-04-12T11:25:39.137Z,13.60
2023-04-12T11:28:14.085Z,13.61
2023-04-12T11:30:53.765Z,13.79
2023-04-12T11:33:40.806Z,13.78
2023-04-12T11:36:12.696Z,13.91
2023-04-12T11:38:40.462Z,13.64
2023-04-12T11:41:09.351Z,13.69
2023-04-12T11:43:40.742Z,13.26
2023-04-12T11:46:08.278Z,13.17
2023-04-12T11:48:39.028Z,12.88
2023-04-12T11:51:32.618Z,13.10
2023-04-12T11:54:00.437Z,13.28
2023-04-12T11:56:29.553Z,13.24
2023-04-12T11:58:56.794Z,13.10
2023-04-12T12:01:24.558Z,13.28
2023-04-12T12:03:52.361Z,13.37
2023-04-12T12:06:20.757Z,13.39
2023-04-12T12:08:51.208Z,13.51
2023-04-12T12:11:22.514Z,13.75
2023-04-12T12:13:53.110Z,13.56
2023-04-12T12:16:30.999Z,13.50
2023-04-12T12:18:58.485Z,13.23
2023-04-12T12:21:27.898Z,13.02
2023-04-12T12:23:57.496Z,13.12
2023-04-12T12:26:27.505Z,13.43
2023-04-12T12:28:57.070Z,13.59
2023-04-12T12:31:26.780Z,13.70
2023-04-12T12:34:04.266Z,13.52
2023-04-12T12:36:36.659Z,13.61
2023-04-12T12:39:11.382Z,13.84
2023-04-12T12:41:39.932Z,13.97
2023-04-12T12:44:08.565Z,13.98
2023-04-12T12:49:06.458Z,14.27
2023-04-12T12:51:33.861Z,14.31
2023-04-12T12:54:01.553Z,14.36
2023-04-12T12:56:28.787Z,14.43
2023-04-12T12:58:56.486Z,14.53
2023-04-12T13:01:24.006Z,14.66
2023-04-12T13:03:51.805Z,14.83
2023-04-12T13:06:19.284Z,15.11
2023-04-12T13:08:47.166Z,15.18
2023-04-12T13:11:16.464Z,15.04
2023-04-12T13:13:45.233Z,15.04
2023-04-12T13:16:12.775Z,14.99
2023-04-12T13:18:40.359Z,14.93
2023-04-12T13:21:08.403Z,15.03
2023-04-12T13:23:36.229Z,15.29
2023-04-12T13:26:03.680Z,15.26
2023-04-12T13:28:30.980Z,15.10
2023-04-12T13:30:58.204Z,15.36
2023-04-12T13:33:25.725Z,15.46
2023-04-12T13:35:53.036Z,15.58
2023-04-12T13:38:20.570Z,15.67
2023-04-12T13:40:48.646Z,15.50
2023-04-12T13:43:16.933Z,15.15
2023-04-12T13:45:45.238Z,15.07
2023-04-12T13:48:12.520Z,14.90
2023-04-12T13:50:39.793Z,14.82
2023-04-12T13:53:07.387Z,14.67
2023-04-12T13:55:34.632Z,14.67
2023-04-12T13:58:02.034Z,14.72
2023-04-12T14:00:29.303Z,14.69
2023-04-12T14:02:57.484Z,14.81
2023-04-12T14:05:24.787Z,14.89
2023-04-12T14:07:52.982Z,14.97
2023-04-12T14:10:20.237Z,15.11
2023-04-12T14:12:47.709Z,15.21
2023-04-12T14:15:15.036Z,15.34
2023-04-12T14:17:43.073Z,15.24
2023-04-12T14:20:13.775Z,15.17
2023-04-12T14:22:41.250Z,15.34
2023-04-12T14:25:08.962Z,15.37
2023-04-12T14:27:37.092Z,15.43
2023-04-12T14:30:06.639Z,15.41
2023-04-12T14:32:34.500Z,15.48
2023-04-12T14:35:02.970Z,15.61
2023-04-12T14:37:30.213Z,15.68
2023-04-12T14:39:57.505Z,15.75
2023-04-12T14:42:24.898Z,15.68
2023-04-12T14:44:52.129Z,15.72
2023-04-12T14:47:19.368Z,15.79
2023-04-12T14:49:46.751Z,15.64
2023-04-12T14:52:14.023Z,15.70
2023-04-12T14:54:41.814Z,15.73
2023-04-12T14:57:09.507Z,15.58
2023-04-12T14:59:36.793Z,15.61
2023-04-12T15:02:04.249Z,15.68
2023-04-12T15:04:31.792Z,15.62
2023-04-12T15:06:59.120Z,15.58
2023-04-12T15:09:26.776Z,15.74
2023-04-12T15:12:01.567Z,15.61
2023-04-12T15:14:29.238Z,15.57
2023-04-12T15:16:56.531Z,15.51
2023-04-12T15:19:24.402Z,15.30
2023-04-12T15:21:52.669Z,15.40
2023-04-12T15:24:20.240Z,15.41
2023-04-12T15:26:48.831Z,15.31
2023-04-12T15:29:16.955Z,15.50
2023-04-12T15:31:44.486Z,15.48
2023-04-12T15:34:12.630Z,15.53
2023-04-12T15:36:46.424Z,15.48
2023-04-12T15:39:15.348Z,15.31
2023-04-12T15:41:43.560Z,15.19
2023-04-12T15:44:14.919Z,15.20
2023-04-12T15:46:43.149Z,15.18
2023-04-12T15:49:11.254Z,14.84
2023-04-12T15:51:38.969Z,14.94
2023-04-12T15:54:06.636Z,14.96
2023-04-12T15:56:34.838Z,14.95
2023-04-12T15:59:02.172Z,14.94
2023-04-12T16:01:29.500Z,14.96
2023-04-12T16:03:57.003Z,14.98
2023-04-12T16:06:25.928Z,14.63
2023-04-12T16:08:59.581Z,14.64
2023-04-12T16:11:27.497Z,14.52
2023-04-12T16:13:55.271Z,14.48
2023-04-12T16:16:23.647Z,14.50
2023-04-12T16:18:52.122Z,14.49
2023-04-12T16:21:21.004Z,14.51
2023-04-12T16:23:50.887Z,14.54
2023-04-12T16:26:22.308Z,14.45
2023-04-12T16:28:55.886Z,14.44
2023-04-12T16:31:25.769Z,14.33
2023-04-12T16:33:54.902Z,14.29
2023-04-12T16:36:25.885Z,14.36
2023-04-12T16:38:59.549Z,14.36
2023-04-12T16:41:26.961Z,14.30
2023-04-12T16:43:55.577Z,14.27
2023-04-12T16:46:23.164Z,14.20
2023-04-12T16:48:50.552Z,14.16
2023-04-12T16:51:17.929Z,14.21
2023-04-12T16:53:45.185Z,14.21
2023-04-12T16:56:12.477Z,14.14
2023-04-12T16:58:39.773Z,13.99
2023-04-12T17:01:08.408Z,14.07
2023-04-12T17:03:36.164Z,14.05
2023-04-12T17:06:04.534Z,13.91
2023-04-12T17:08:31.823Z,13.80
2023-04-12T17:10:59.089Z,13.80
2023-04-12T17:13:27.110Z,13.74
2023-04-12T17:15:54.482Z,13.59
2023-04-12T17:18:21.893Z,13.52
2023-04-12T17:20:49.145Z,13.52
2023-04-12T17:23:16.510Z,13.43
2023-04-12T17:25:43.760Z,13.43
2023-04-12T17:28:11.120Z,13.42
2023-04-12T17:30:38.802Z,13.41
2023-04-12T17:33:08.090Z,13.41
2023-04-12T17:35:35.990Z,13.37
2023-04-12T17:38:03.338Z,13.32
2023-04-12T17:40:30.736Z,13.18
2023-04-12T17:42:57.989Z,13.19
2023-04-12T17:45:25.479Z,13.09
2023-04-12T17:47:52.792Z,13.04
2023-04-12T17:50:20.152Z,12.99
2023-04-12T17:52:47.677Z,12.99
2023-04-12T17:55:15.220Z,12.94
2023-04-12T17:57:44.792Z,12.85
2023-04-12T18:00:12.601Z,12.84
2023-04-12T18:02:41.093Z,12.83
2023-04-12T18:05:08.722Z,12.71
2023-04-12T18:07:35.915Z,12.71
2023-04-12T18:10:03.572Z,12.65
2023-04-12T18:12:30.796Z,12.57
2023-04-12T18:14:58.335Z,12.49
2023-04-12T18:17:26.577Z,12.40
2023-04-12T18:19:54.849Z,12.29
2023-04-12T18:22:22.286Z,12.24
2023-04-12T18:24:49.622Z,12.23
2023-04-12T18:27:16.857Z,12.25
2023-04-12T18:29:45.143Z,12.22
2023-04-12T18:32:12.775Z,12.21
2023-04-12T18:34:40.024Z,12.22
2023-04-12T18:37:07.876Z,12.20
2023-04-12T18:39:36.103Z,12.07
2023-04-12T18:42:03.362Z,11.96
2023-04-12T18:44:32.903Z,11.94
2023-04-12T18:47:00.273Z,11.88
2023-04-12T18:49:28.195Z,11.73
2023-04-12T18:51:58.809Z,11.61
2023-04-12T18:54:28.146Z,11.60
2023-04-12T18:56:58.294Z,11.44
2023-04-12T18:59:25.663Z,11.30
2023-04-12T19:01:53.133Z,11.18
2023-04-12T19:04:21.207Z,11.13
2023-04-12T19:06:48.494Z,11.15
2023-04-12T19:09:15.743Z,11.16
2023-04-12T19:11:42.982Z,11.11
2023-04-12T19:14:10.368Z,11.07
2023-04-12T19:16:38.005Z,11.02
2023-04-12T19:19:05.531Z,10.84
2023-04-12T19:21:34.208Z,10.83
2023-04-12T19:24:01.603Z,10.88
2023-04-12T19:26:30.711Z,10.81
2023-04-12T19:28:59.250Z,10.78
2023-04-12T19:31:26.573Z,10.73
2023-04-12T19:33:57.762Z,10.66
2023-04-12T19:36:25.373Z,10.65
2023-04-12T19:38:52.711Z,10.61
2023-04-12T19:41:21.205Z,10.55
2023-04-12T19:43:48.544Z,10.61
2023-04-12T19:46:16.801Z,10.60
2023-04-12T19:48:45.870Z,10.58
2023-04-12T19:51:13.653Z,10.53
2023-04-12T19:53:42.306Z,10.49
2023-04-12T19:56:10.079Z,10.44
2023-04-12T19:58:37.656Z,10.41
2023-04-12T20:01:05.135Z,10.38
2023-04-12T20:03:33.160Z,10.40
2023-04-12T20:06:04.203Z,10.47
2023-04-12T20:08:32.203Z,10.47
2023-04-12T20:10:59.893Z,10.52
2023-04-12T20:13:27.580Z,10.54
2023-04-12T20:15:55.296Z,10.62
2023-04-12T20:18:22.750Z,10.67
2023-04-12T20:20:50.161Z,10.71
2023-04-12T20:23:17.967Z,10.64
2023-04-12T20:25:49.372Z,10.62
2023-04-12T20:28:17.913Z,10.66
2023-04-12T20:30:48.591Z,10.66
2023-04-12T20:33:16.200Z,10.66
2023-04-12T20:35:43.510Z,10.61
2023-04-12T20:38:10.752Z,10.45
2023-04-12T20:40:38.275Z,10.46
2023-04-12T20:43:06.419Z,10.47
2023-04-12T20:45:35.192Z,10.49
2023-04-12T20:48:02.590Z,10.52
2023-04-12T20:50:30.735Z,10.51
2023-04-12T20:53:01.212Z,10.46
2023-04-12T20:55:34.343Z,10.45
2023-04-12T20:58:04.841Z,10.33
2023-04-12T21:00:34.129Z,10.33
2023-04-12T21:03:04.487Z,10.34
2023-04-12T21:05:36.408Z,10.31
2023-04-12T21:08:03.709Z,10.25
2023-04-12T21:10:31.049Z,10.22
2023-04-12T21:13:02.150Z,10.19
2023-04-12T21:15:30.507Z,10.16
2023-04-12T21:17:57.779Z,10.17
2023-04-12T21:20:25.821Z,10.12
2023-04-12T21:22:53.761Z,10.10
2023-04-12T21:25:21.670Z,10.04
2023-04-12T21:27:50.097Z,9.89
2023-04-12T21:30:17.754Z,9.89
2023-04-12T21:32:45.428Z,9.92
2023-04-12T21:35:14.424Z,9.82
2023-04-12T21:37:41.644Z,9.73
2023-04-12T21:40:09.935Z,9.76
2023-04-12T21:42:38.467Z,9.70
2023-04-12T21:45:06.994Z,9.59
2023-04-12T21:47:34.611Z,9.56
2023-04-12T21:50:02.665Z,9.54
2023-04-12T21:52:29.935Z,9.51
2023-04-12T21:54:57.272Z,9.49
2023-04-12T21:57:24.553Z,9.39
2023-04-12T21:59:51.923Z,9.38
2023-04-12T22:02:19.749Z,9.32
2023-04-12T22:04:47.254Z,9.36
2023-04-12T22:07:17.771Z,9.37
2023-04-12T22:09:46.008Z,9.36
2023-04-12T22:12:13.749Z,9.39
2023-04-12T22:14:47.477Z,9.41
2023-04-12T22:17:15.162Z,9.43
2023-04-12T22:19:42.735Z,9.39
2023-04-12T22:22:11.422Z,9.24
2023-04-12T22:24:39.186Z,9.15
2023-04-12T22:27:07.328Z,9.15
2023-04-12T22:29:34.934Z,9.13
2023-04-12T22:32:02.726Z,9.11
2023-04-12T22:34:30.025Z,9.10
2023-04-12T22:37:00.279Z,9.12
2023-04-12T22:39:27.805Z,9.07
2023-04-12T22:41:57.683Z,8.99
2023-04-12T22:44:26.382Z,8.92
2023-04-12T22:46:55.105Z,8.86
2023-04-12T22:49:28.616Z,8.82
2023-04-12T22:51:56.213Z,8.84
2023-04-12T22:54:25.036Z,8.82
2023-04-12T22:56:53.022Z,8.86
2023-04-12T22:59:20.624Z,8.85
2023-04-12T23:01:47.885Z,8.80
2023-04-12T23:04:16.303Z,8.79
2023-04-12T23:06:44.529Z,8.80
2023-04-12T23:09:13.159Z,8.79
2023-04-12T23:11:42.087Z,8.75
2023-04-12T23:14:10.335Z,8.73
2023-04-12T23:16:44.604Z,8.74
2023-04-12T23:19:12.878Z,8.69
2023-04-12T23:21:41.674Z,8.62
2023-04-12T23:24:09.032Z,8.63
2023-04-12T23:26:36.700Z,8.61
2023-04-12T23:29:04.448Z,8.63
2023-04-12T23:31:34.550Z,8.60
2023-04-12T23:34:03.557Z,8.61
2023-04-12T23:36:31.207Z,8.68
2023-04-12T23:39:05.772Z,8.63
2023-04-12T23:41:34.063Z,8.63
2023-04-12T23:44:01.515Z,8.61
2023-04-12T23:46:28.910Z,8.56
2023-04-12T23:48:56.917Z,8.51
2023-04-12T23:51:24.205Z,8.46
2023-04-12T23:53:52.191Z,8.49
2023-04-12T23:56:19.495Z,8.58
2023-04-12T23:58:47.455Z,8.62
